Aeroporto :
LOGIN :

Iscrizione | Disclaimer

   EN    FR    IT 

 










Sommario :    VFR   VFR Marginale   IFR   IFR Intensivo   IFR Molto Intensivo
Visibilità : 
Base nubi : 
>= 8 km
>= 3000ft
5 / 8 km
1000 / 3000 ft
1500m / 5 km
500 / 1000 ft
800 / 1500m
200 / 500 ft
< 800m
< 200 ft
Simboli :   Temporali  Nebbia  Neve Forte  Precipitazioni Forti  Vento > 20 kt
SIGMETs :   Varie  Temporali  Ghiacco  Turbolenza  Onda orograficha  Ceneri Vulcaniche






- Altitudine del aeroporto : 172 ft
- Codice IATA : ODS


UKOO - Odesa

ULTIMO METAR :
  • 100230Z 00000MPS CAVOK 06/00 Q1014 R34/090060 NOSIG

METARs OBSOLETI :
  • 100200Z 00000MPS CAVOK 06/01 Q1015 R34/090060 NOSIG
  • 100130Z 00000MPS CAVOK 05/00 Q1015 R34/090060 NOSIG
  • 100100Z 00000MPS CAVOK 06/01 Q1015 R34/090060 NOSIG
  • 100030Z 00000MPS CAVOK 05/01 Q1015 R34/090060 NOSIG
  • 100000Z 00000MPS CAVOK 06/01 Q1016 R34/090060 NOSIG

TAF TAF UKOO
Valido dal 10 a 00 ore il 11 a 00 ore UTC


092304Z 1000/1024 24003MPS 6000 NSC TX20/1012Z TN03/1003Z
BECMG 1005/1006 27007G13MPS BKN007 SCT015CB
BECMG 1012/1013 33008G16MPS



MetMap, La meteo Aeronautica in un colpo d'occhio ! - Copyright ORBIFLY Dicembre 2007 - Disclaimer

ORBIFLY MET'MAP TEAM :

Programmazione e sviluppo : Alexandra Zaïnal
Concezione : Baudouin d'Aumeries
Aiuto per la programmazione : Marc-Olivier Méhu
Supporto tecnico e logistico : Manuel Goepfert
Aiuto per la traduzione : Arnaldo La Scala

Contatto : metmap@orbifly.com




FONTI E CREDITI :

   NOAA